Time;durP1;ratioP1;P1;durP2;ratioP2;P2;SDS_P1;SDS_P2;PMS_P1;PMS_P2;Temp;Humidity;BMP_temperature;BMP_pressure;BME280_temperature;BME280_humidity;BME280_pressure;Samples;Min_cycle;Max_cycle;Signal;HPM_P1;HPM_P2
2022/06/06 00:02:04;;;;;;;17.93;15.20;;;20.10;99.90;;;;;;4972936;28;20578;-83
2022/06/06 00:04:30;;;;;;;15.83;14.13;;;20.00;99.90;;;;;;4972854;28;20662;-82
2022/06/06 00:06:58;;;;;;;14.80;13.30;;;20.00;99.90;;;;;;4971912;28;20928;-82
2022/06/06 00:09:25;;;;;;;15.00;12.03;;;19.90;99.90;;;;;;4973055;28;20274;-81
2022/06/06 00:11:54;;;;;;;17.73;14.10;;;19.90;99.90;;;;;;4972590;28;20567;-82
2022/06/06 00:14:20;;;;;;;14.47;12.47;;;19.90;99.90;;;;;;4973081;28;20579;-81
2022/06/06 00:16:45;;;;;;;12.87;11.57;;;19.90;99.90;;;;;;4973117;28;20563;-81
2022/06/06 00:19:12;;;;;;;16.73;13.30;;;19.90;99.90;;;;;;4955880;28;20215;-82
2022/06/06 00:21:39;;;;;;;14.47;11.40;;;19.90;99.90;;;;;;4974475;28;20171;-82
2022/06/06 00:24:06;;;;;;;17.80;14.33;;;19.90;99.90;;;;;;4972910;28;20626;-82
2022/06/06 00:26:33;;;;;;;13.13;11.80;;;19.90;99.90;;;;;;4973138;28;20614;-81
2022/06/06 00:28:58;;;;;;;15.50;12.80;;;19.90;99.90;;;;;;4972983;28;20599;-81
2022/06/06 00:36:59;;;;;;;16.67;11.87;;;19.90;99.90;;;;;;4972956;28;20930;-82
2022/06/06 00:39:25;;;;;;;16.17;12.23;;;19.90;99.90;;;;;;4972514;28;20713;-82
2022/06/06 00:41:53;;;;;;;12.10;10.60;;;19.90;99.90;;;;;;4972116;28;20259;-82
2022/06/06 00:44:31;;;;;;;15.90;11.67;;;19.90;99.90;;;;;;4972617;28;20717;-82
2022/06/06 00:47:02;;;;;;;13.27;11.70;;;19.90;99.90;;;;;;4973161;28;20946;-82
2022/06/06 00:49:37;;;;;;;12.50;10.93;;;19.90;99.90;;;;;;4973359;28;20606;-82
2022/06/06 00:52:18;;;;;;;13.87;11.63;;;19.90;99.90;;;;;;4971619;28;20571;-81
2022/06/06 00:54:45;;;;;;;13.80;10.90;;;19.90;99.90;;;;;;4971941;28;20637;-81
2022/06/06 00:57:17;;;;;;;12.17;10.70;;;19.90;99.90;;;;;;4975028;28;20615;-82
2022/06/06 00:59:44;;;;;;;14.20;11.73;;;19.90;99.90;;;;;;4972783;28;20610;-81
2022/06/06 01:02:11;;;;;;;14.53;11.67;;;19.90;99.90;;;;;;4972160;28;20578;-82
2022/06/06 01:04:39;;;;;;;12.53;11.33;;;19.90;99.90;;;;;;4971579;28;20626;-82
2022/06/06 01:07:09;;;;;;;12.43;11.20;;;19.90;99.90;;;;;;4973789;28;20626;-82
2022/06/06 01:09:37;;;;;;;11.57;9.97;;;19.80;99.90;;;;;;4976964;28;20611;-82
2022/06/06 01:12:08;;;;;;;13.30;10.00;;;19.80;99.90;;;;;;4978071;28;20595;-82
2022/06/06 01:14:44;;;;;;;11.53;9.63;;;19.90;99.90;;;;;;4974648;28;21201;-82
2022/06/06 01:17:18;;;;;;;12.90;11.03;;;19.90;99.90;;;;;;4974047;28;20578;-82
2022/06/06 01:20:01;;;;;;;11.23;9.50;;;19.90;99.90;;;;;;4973668;28;20636;-82
2022/06/06 01:22:51;;;;;;;12.60;9.90;;;19.80;99.90;;;;;;4956735;28;20614;-80
2022/06/06 01:25:54;;;;;;;13.57;11.10;;;19.90;99.90;;;;;;4992040;28;21021;-82
2022/06/06 01:28:31;;;;;;;15.20;11.17;;;19.80;99.90;;;;;;4967306;28;20583;-82
2022/06/06 01:31:03;;;;;;;14.50;11.23;;;19.80;99.90;;;;;;4970110;28;20614;-82
2022/06/06 01:33:29;;;;;;;12.47;10.60;;;19.80;99.90;;;;;;4967697;28;20587;-82
2022/06/06 01:36:01;;;;;;;13.63;10.20;;;19.80;99.90;;;;;;4990047;28;20575;-83
2022/06/06 01:38:27;;;;;;;12.90;11.50;;;19.80;99.90;;;;;;4991742;28;20257;-82
2022/06/06 01:41:10;;;;;;;14.63;11.20;;;19.80;99.90;;;;;;4983316;28;20764;-82
2022/06/06 01:43:45;;;;;;;13.67;10.20;;;19.80;99.90;;;;;;4989535;28;20641;-82
2022/06/06 01:46:26;;;;;;;11.30;10.20;;;19.80;99.90;;;;;;4986146;28;20582;-82
2022/06/06 01:48:53;;;;;;;10.90;9.80;;;19.80;99.90;;;;;;4995143;28;20597;-82
2022/06/06 01:51:23;;;;;;;13.83;9.60;;;19.80;99.90;;;;;;4977129;28;20573;-82
2022/06/06 01:53:48;;;;;;;11.27;10.10;;;19.80;99.90;;;;;;4977905;28;21046;-82
2022/06/06 01:56:19;;;;;;;11.20;9.43;;;19.80;99.90;;;;;;4977447;28;20610;-82
2022/06/06 01:58:45;;;;;;;10.57;9.43;;;19.80;99.90;;;;;;4977239;28;20171;-82
2022/06/06 02:01:11;;;;;;;10.50;8.40;;;19.80;99.90;;;;;;4994179;28;20578;-82
2022/06/06 02:03:37;;;;;;;10.77;9.67;;;19.70;99.90;;;;;;4994905;28;20167;-81
2022/06/06 02:06:04;;;;;;;12.17;8.37;;;19.70;99.90;;;;;;4977238;28;20207;-82
2022/06/06 02:08:31;;;;;;;9.90;8.87;;;19.70;99.90;;;;;;4977560;28;20566;-81
2022/06/06 02:10:57;;;;;;;11.53;9.13;;;19.70;99.90;;;;;;4996130;28;20644;-81
2022/06/06 02:13:23;;;;;;;8.57;7.77;;;19.60;99.90;;;;;;4994533;28;20570;-81
2022/06/06 02:15:49;;;;;;;13.53;8.37;;;19.60;99.90;;;;;;4994598;28;20570;-81
2022/06/06 02:18:15;;;;;;;8.00;7.20;;;19.60;99.90;;;;;;4994578;28;20585;-80
2022/06/06 02:20:41;;;;;;;9.77;8.27;;;19.50;99.90;;;;;;4976928;28;20186;-80
2022/06/06 02:23:07;;;;;;;9.77;7.83;;;19.50;99.90;;;;;;4994029;28;21177;-80
2022/06/06 02:25:34;;;;;;;8.50;7.27;;;19.40;99.90;;;;;;4994391;28;20231;-80
2022/06/06 02:28:01;;;;;;;9.30;7.60;;;19.40;99.90;;;;;;4994197;28;20907;-81
2022/06/06 02:30:30;;;;;;;7.97;6.10;;;19.40;99.90;;;;;;4994018;28;20618;-81
2022/06/06 02:32:56;;;;;;;6.97;6.20;;;19.40;99.90;;;;;;4993947;28;20994;-81
2022/06/06 02:35:25;;;;;;;6.60;5.90;;;19.40;99.90;;;;;;4994464;28;20577;-81
2022/06/06 02:37:53;;;;;;;6.03;5.43;;;19.40;99.90;;;;;;4994259;28;20562;-82
2022/06/06 02:40:20;;;;;;;7.13;5.73;;;19.30;99.90;;;;;;4993800;28;20629;-81
2022/06/06 02:42:46;;;;;;;8.67;5.80;;;19.30;99.90;;;;;;4993313;28;20589;-81
2022/06/06 02:45:15;;;;;;;7.40;6.07;;;19.20;99.90;;;;;;4994076;28;21003;-81
2022/06/06 02:47:46;;;;;;;5.90;4.73;;;19.20;99.90;;;;;;4978564;28;20610;-82
2022/06/06 02:50:15;;;;;;;7.67;5.93;;;19.10;99.90;;;;;;4994089;28;21015;-81
2022/06/06 02:52:40;;;;;;;7.47;6.77;;;19.10;99.90;;;;;;4995099;28;21103;-82
2022/06/06 02:55:08;;;;;;;7.17;5.90;;;19.00;99.90;;;;;;4994171;28;20570;-82
2022/06/06 02:57:48;;;;;;;5.63;5.07;;;19.00;99.90;;;;;;4976721;28;20270;-81
2022/06/06 03:00:19;;;;;;;6.27;5.13;;;18.90;99.90;;;;;;4993512;28;20598;-82
2022/06/06 03:02:45;;;;;;;8.07;5.93;;;18.80;99.90;;;;;;4993496;28;20577;-81
2022/06/06 03:05:11;;;;;;;5.60;5.00;;;18.80;99.90;;;;;;4993568;28;20713;-81
2022/06/06 03:07:55;;;;;;;7.60;4.90;;;18.70;99.90;;;;;;4994000;28;20561;-82
2022/06/06 03:10:42;;;;;;;7.47;5.50;;;18.70;99.90;;;;;;4993412;28;20590;-82
2022/06/06 03:13:35;;;;;;;6.10;4.80;;;18.70;99.90;;;;;;4993500;28;20567;-81
2022/06/06 03:22:33;;;;;;;6.30;4.70;;;18.80;99.90;;;;;;4995380;28;21105;-82
2022/06/06 03:25:30;;;;;;;5.03;4.30;;;18.90;99.90;;;;;;4982031;28;20637;-82
2022/06/06 03:28:05;;;;;;;5.20;4.13;;;18.90;99.90;;;;;;4981647;28;20590;-82
2022/06/06 03:30:37;;;;;;;5.13;4.07;;;19.00;99.90;;;;;;4994439;28;20602;-81
2022/06/06 03:33:02;;;;;;;4.87;3.83;;;19.00;99.90;;;;;;4977369;28;20582;-81
2022/06/06 03:35:52;;;;;;;4.50;3.83;;;19.00;99.90;;;;;;4994924;28;20582;-79
2022/06/06 03:38:46;;;;;;;6.50;4.33;;;19.00;99.90;;;;;;4993476;28;20595;-79
2022/06/06 03:41:27;;;;;;;6.20;5.03;;;19.00;99.90;;;;;;4992087;28;20574;-79
2022/06/06 03:43:57;;;;;;;4.77;3.70;;;19.00;99.90;;;;;;4959313;28;20581;-79
2022/06/06 03:47:19;;;;;;;5.00;3.87;;;19.00;99.90;;;;;;4959281;28;20566;-78
2022/06/06 03:50:19;;;;;;;5.17;3.53;;;19.00;99.90;;;;;;4940955;28;20606;-78
2022/06/06 03:52:55;;;;;;;3.73;3.27;;;19.00;99.90;;;;;;4992248;28;20634;-78
2022/06/06 03:55:39;;;;;;;3.90;3.50;;;19.00;99.90;;;;;;4992606;28;20565;-78
2022/06/06 03:58:05;;;;;;;5.07;3.13;;;19.00;99.90;;;;;;4992121;28;21130;-79
2022/06/06 04:00:35;;;;;;;3.67;3.10;;;19.00;99.90;;;;;;4961902;28;20645;-79
2022/06/06 04:03:05;;;;;;;4.80;4.00;;;19.00;99.90;;;;;;4993457;28;20570;-78
2022/06/06 04:05:34;;;;;;;4.87;4.47;;;19.00;99.90;;;;;;4975248;28;20624;-78
2022/06/06 04:08:00;;;;;;;4.03;3.17;;;19.00;99.90;;;;;;4992413;28;20924;-79
2022/06/06 04:10:48;;;;;;;4.33;3.80;;;19.00;99.90;;;;;;4992102;28;20594;-78
2022/06/06 04:13:25;;;;;;;3.50;3.20;;;19.00;99.90;;;;;;4992720;28;21064;-79
2022/06/06 04:16:12;;;;;;;3.73;3.10;;;19.10;99.90;;;;;;4992436;28;20566;-79
2022/06/06 04:19:05;;;;;;;3.93;3.53;;;19.10;99.90;;;;;;4975038;28;20574;-79
2022/06/06 04:21:50;;;;;;;3.40;3.10;;;19.20;99.90;;;;;;4991825;28;20597;-79
2022/06/06 04:24:59;;;;;;;3.33;3.03;;;19.20;99.90;;;;;;4992124;28;20640;-79
2022/06/06 04:27:39;;;;;;;3.57;3.27;;;19.30;99.90;;;;;;4992635;28;20668;-79
2022/06/06 04:30:21;;;;;;;3.23;2.93;;;19.40;99.90;;;;;;4992480;28;20830;-78
2022/06/06 04:33:05;;;;;;;3.70;3.40;;;19.40;99.90;;;;;;4991668;28;20577;-79
2022/06/06 04:35:49;;;;;;;4.07;3.67;;;19.50;99.90;;;;;;4992270;28;20574;-78
2022/06/06 04:38:49;;;;;;;3.27;2.97;;;19.50;99.90;;;;;;4994148;28;20669;-78
2022/06/06 04:41:44;;;;;;;4.87;3.70;;;19.50;99.90;;;;;;4969988;28;20602;-78
2022/06/06 04:44:39;;;;;;;3.73;3.33;;;19.60;99.90;;;;;;4992046;28;20641;-79
2022/06/06 04:47:14;;;;;;;5.50;3.70;;;19.60;99.90;;;;;;4971120;28;21130;-79
2022/06/06 04:49:41;;;;;;;3.13;2.77;;;19.60;99.90;;;;;;4991610;28;20594;-79
2022/06/06 04:52:08;;;;;;;3.73;3.43;;;19.60;99.90;;;;;;4991569;28;20570;-79
2022/06/06 04:54:38;;;;;;;3.53;2.70;;;19.70;99.90;;;;;;4991913;28;20570;-79
2022/06/06 04:57:04;;;;;;;4.10;3.53;;;19.70;99.90;;;;;;4974683;28;20575;-77
2022/06/06 04:59:31;;;;;;;3.67;3.07;;;19.80;99.90;;;;;;4991826;28;20664;-77
2022/06/06 05:02:02;;;;;;;4.53;3.70;;;19.80;99.90;;;;;;4974125;28;20660;-76
2022/06/06 05:04:29;;;;;;;4.37;3.73;;;19.80;99.90;;;;;;4991807;28;20644;-76
2022/06/06 05:07:29;;;;;;;3.50;3.20;;;19.90;99.90;;;;;;4991792;28;21262;-78
2022/06/06 05:10:01;;;;;;;4.87;3.53;;;19.90;99.90;;;;;;4941674;28;20657;-78
2022/06/06 05:12:50;;;;;;;3.13;2.77;;;20.00;99.90;;;;;;4995439;28;20566;-78
2022/06/06 05:15:38;;;;;;;3.60;3.17;;;20.10;99.90;;;;;;4980014;28;20587;-77
2022/06/06 05:18:10;;;;;;;4.80;3.80;;;20.10;99.90;;;;;;4995581;28;20601;-78
2022/06/06 05:20:43;;;;;;;2.93;2.40;;;20.10;99.90;;;;;;4977858;28;20617;-78
2022/06/06 05:23:41;;;;;;;4.03;3.03;;;20.20;99.90;;;;;;4977386;28;20590;-78
2022/06/06 05:26:40;;;;;;;3.00;2.30;;;20.20;99.90;;;;;;4941833;28;20667;-79
2022/06/06 05:29:31;;;;;;;2.67;2.47;;;20.10;99.90;;;;;;4978075;28;20624;-78
2022/06/06 05:32:26;;;;;;;2.47;2.07;;;20.10;99.90;;;;;;4995176;28;20698;-79
2022/06/06 05:35:07;;;;;;;3.10;1.90;;;20.10;99.90;;;;;;4942915;28;20620;-79
2022/06/06 05:37:41;;;;;;;3.33;2.00;;;20.20;99.90;;;;;;4995095;28;20911;-79
2022/06/06 05:40:20;;;;;;;3.13;2.60;;;20.30;99.90;;;;;;4994929;28;20644;-79
2022/06/06 05:42:57;;;;;;;2.77;2.30;;;20.40;99.90;;;;;;4995175;28;20983;-79
2022/06/06 05:45:35;;;;;;;2.80;2.23;;;20.60;99.90;;;;;;4995408;28;20676;-77
2022/06/06 05:48:25;;;;;;;3.23;2.57;;;20.70;99.90;;;;;;4995080;28;20566;-78
2022/06/06 05:51:03;;;;;;;3.40;2.03;;;20.80;99.90;;;;;;4995247;28;20592;-79
2022/06/06 05:53:47;;;;;;;2.77;2.10;;;21.20;99.90;;;;;;4995855;28;20574;-79
2022/06/06 05:56:16;;;;;;;4.67;1.83;;;21.90;99.90;;;;;;4961555;28;20960;-79
2022/06/06 05:59:10;;;;;;;4.77;1.80;;;22.70;99.90;;;;;;4995605;28;20930;-79
2022/06/06 06:01:44;;;;;;;2.63;1.93;;;23.40;99.90;;;;;;4980164;28;20623;-78
2022/06/06 06:04:28;;;;;;;1.70;1.20;;;24.50;99.90;;;;;;4975213;28;20600;-78
2022/06/06 06:07:13;;;;;;;2.83;1.87;;;25.50;99.90;;;;;;4975095;28;20567;-79
2022/06/06 06:10:00;;;;;;;3.50;1.43;;;26.60;99.90;;;;;;4957753;28;21367;-78
2022/06/06 06:12:47;;;;;;;1.70;1.20;;;27.50;99.90;;;;;;4973368;28;20571;-79
2022/06/06 06:15:34;;;;;;;1.80;1.10;;;27.90;99.90;;;;;;4975246;28;20563;-78
2022/06/06 06:18:02;;;;;;;2.13;1.33;;;28.00;99.90;;;;;;4973640;28;20671;-79
2022/06/06 06:20:32;;;;;;;1.70;1.10;;;28.50;99.90;;;;;;4974241;28;20634;-79
2022/06/06 06:23:04;;;;;;;2.50;1.13;;;29.20;99.90;;;;;;4973265;28;20570;-79
2022/06/06 06:25:34;;;;;;;2.80;0.90;;;29.80;99.90;;;;;;4974613;28;21186;-79
2022/06/06 06:28:06;;;;;;;2.20;1.10;;;30.60;99.90;;;;;;4976165;28;20571;-79
2022/06/06 06:30:47;;;;;;;4.70;1.10;;;31.30;99.90;;;;;;4974163;28;20605;-78
2022/06/06 06:33:38;;;;;;;1.30;0.70;;;32.00;99.90;;;;;;4974374;28;20738;-78
2022/06/06 06:36:18;;;;;;;1.80;1.00;;;32.60;99.90;;;;;;4974278;28;20661;-78
2022/06/06 06:38:56;;;;;;;2.50;0.83;;;33.10;99.50;;;;;;4974617;28;20564;-80
2022/06/06 06:41:53;;;;;;;1.90;0.77;;;33.30;97.30;;;;;;4973924;28;20563;-79
2022/06/06 06:44:33;;;;;;;1.30;0.70;;;33.30;95.20;;;;;;4973842;28;20644;-79
2022/06/06 06:47:06;;;;;;;1.40;0.90;;;33.20;93.30;;;;;;4974297;28;20572;-79
2022/06/06 06:49:57;;;;;;;1.60;0.70;;;33.00;90.90;;;;;;4982147;28;20613;-83
2022/06/06 06:52:37;;;;;;;1.30;0.60;;;32.80;90.80;;;;;;4963958;28;21165;-83
2022/06/06 06:55:36;;;;;;;1.30;0.60;;;32.60;88.30;;;;;;4982526;28;20571;-83
2022/06/06 06:58:20;;;;;;;1.50;0.70;;;32.20;86.40;;;;;;4979599;28;20599;-84
2022/06/06 07:01:18;;;;;;;4.70;0.83;;;31.90;87.50;;;;;;4982691;28;20687;-82
2022/06/06 07:10:17;;;;;;;1.40;0.80;;;31.40;85.80;;;;;;4977220;28;20599;-83
2022/06/06 07:13:03;;;;;;;1.50;0.70;;;31.70;87.10;;;;;;4977310;28;20583;-83
2022/06/06 07:16:01;;;;;;;2.53;0.80;;;32.20;87.10;;;;;;4961699;28;20598;-82
2022/06/06 07:18:32;;;;;;;1.70;0.60;;;32.70;87.80;;;;;;4979252;28;20615;-82
2022/06/06 07:21:01;;;;;;;2.03;0.87;;;33.50;86.10;;;;;;4977720;28;20598;-82
2022/06/06 07:23:33;;;;;;;1.60;0.70;;;34.10;84.80;;;;;;4961519;28;20629;-83
2022/06/06 07:25:59;;;;;;;1.80;0.80;;;34.60;79.20;;;;;;4978299;28;20629;-83
2022/06/06 07:28:25;;;;;;;2.20;0.70;;;35.30;81.00;;;;;;4977010;28;20571;-82
2022/06/06 07:31:37;;;;;;;3.50;0.80;;;35.70;77.70;;;;;;4971545;28;20196;-82
2022/06/06 07:34:20;;;;;;;1.60;0.70;;;36.20;76.40;;;;;;4910156;29;20633;-83
2022/06/06 07:36:58;;;;;;;1.60;0.70;;;36.70;73.00;;;;;;4976280;28;20618;-83
2022/06/06 07:40:03;;;;;;;1.70;0.60;;;37.10;69.60;;;;;;4969126;28;20657;-83
2022/06/06 07:43:00;;;;;;;1.40;0.70;;;37.40;64.80;;;;;;4918470;28;20591;-83
2022/06/06 07:45:29;;;;;;;1.70;0.80;;;37.80;63.60;;;;;;4960854;28;20677;-82
2022/06/06 07:48:13;;;;;;;1.53;0.60;;;38.20;64.30;;;;;;4961028;28;20610;-82
2022/06/06 07:50:56;;;;;;;3.30;0.70;;;38.40;61.50;;;;;;4973257;28;20649;-82
2022/06/06 07:53:36;;;;;;;1.63;0.57;;;38.70;58.80;;;;;;4973710;28;20578;-81
2022/06/06 07:56:14;;;;;;;1.40;0.70;;;38.90;57.60;;;;;;4956194;28;20993;-80
2022/06/06 07:58:49;;;;;;;1.20;0.60;;;39.20;56.80;;;;;;4955851;28;20666;-82
2022/06/06 08:01:48;;;;;;;2.23;0.50;;;39.30;55.40;;;;;;4972938;28;20571;-82
2022/06/06 08:04:50;;;;;;;1.40;0.50;;;39.00;52.90;;;;;;4973879;28;20581;-82
2022/06/06 08:07:35;;;;;;;1.40;0.60;;;38.70;52.50;;;;;;4973576;28;21161;-81
2022/06/06 08:10:35;;;;;;;1.20;0.60;;;38.50;53.00;;;;;;4976688;28;20721;-83
2022/06/06 08:13:39;;;;;;;1.63;0.80;;;38.10;50.50;;;;;;4964387;28;20575;-84
2022/06/06 08:16:24;;;;;;;2.10;0.70;;;37.50;49.50;;;;;;4973038;28;20593;-83
2022/06/06 08:18:59;;;;;;;2.80;1.03;;;36.90;51.00;;;;;;4975758;28;20575;-83
2022/06/06 08:21:33;;;;;;;1.70;0.57;;;36.30;49.80;;;;;;4956635;28;21125;-83
2022/06/06 08:24:03;;;;;;;1.47;0.60;;;36.10;51.00;;;;;;4970417;28;20623;-84
2022/06/06 08:26:30;;;;;;;1.30;0.47;;;36.20;51.70;;;;;;4962804;28;21151;-84
2022/06/06 08:28:56;;;;;;;1.30;0.43;;;36.40;52.00;;;;;;4955682;28;20630;-84
2022/06/06 08:31:22;;;;;;;1.43;0.50;;;36.60;51.70;;;;;;4972011;28;20567;-83
2022/06/06 08:33:48;;;;;;;1.20;0.47;;;36.50;50.80;;;;;;4955893;28;20179;-83
2022/06/06 08:36:38;;;;;;;1.50;0.50;;;36.20;49.60;;;;;;4972985;28;20572;-84
2022/06/06 08:39:15;;;;;;;1.60;0.60;;;35.70;48.10;;;;;;4972095;28;20731;-83
2022/06/06 08:42:10;;;;;;;1.40;0.60;;;34.70;45.40;;;;;;4972061;28;20178;-84
2022/06/06 08:44:55;;;;;;;1.90;0.50;;;34.30;47.20;;;;;;4958039;28;20818;-83
2022/06/06 08:47:51;;;;;;;1.73;0.50;;;33.30;45.50;;;;;;4970385;28;20237;-83
2022/06/06 08:50:44;;;;;;;1.50;0.50;;;33.10;48.20;;;;;;4925128;28;20807;-84
2022/06/06 08:53:48;;;;;;;1.37;0.50;;;32.70;47.20;;;;;;4974764;28;20554;-83
2022/06/06 08:56:38;;;;;;;1.40;0.50;;;32.60;48.70;;;;;;4979606;28;20602;-82
2022/06/06 08:59:48;;;;;;;1.20;0.50;;;32.60;49.70;;;;;;4976365;28;20603;-83
2022/06/06 09:02:33;;;;;;;1.73;0.50;;;33.20;51.50;;;;;;4963769;28;20680;-83
2022/06/06 09:05:23;;;;;;;3.00;0.50;;;33.90;51.40;;;;;;4973403;28;20780;-83
2022/06/06 09:08:26;;;;;;;1.40;0.50;;;34.30;50.30;;;;;;4969306;28;20647;-85
2022/06/06 09:11:21;;;;;;;1.37;0.50;;;34.40;50.00;;;;;;4947209;28;20659;-85
2022/06/06 09:13:58;;;;;;;1.40;0.50;;;34.20;49.70;;;;;;4954139;28;20711;-85
2022/06/06 09:16:39;;;;;;;1.70;0.90;;;34.20;46.30;;;;;;4960483;28;20210;-83
2022/06/06 09:19:26;;;;;;;1.63;0.57;;;34.80;48.00;;;;;;4968338;28;20618;-76
2022/06/06 09:22:10;;;;;;;3.80;0.60;;;35.30;49.60;;;;;;4971492;28;20941;-76
2022/06/06 09:24:55;;;;;;;1.30;0.50;;;35.70;48.20;;;;;;4971597;28;20630;-75
2022/06/06 09:27:55;;;;;;;1.60;0.50;;;35.70;47.60;;;;;;4971690;28;20590;-75
2022/06/06 09:30:32;;;;;;;1.40;0.50;;;35.40;46.10;;;;;;4938654;29;20649;-75
2022/06/06 09:33:27;;;;;;;1.20;0.40;;;34.90;45.70;;;;;;4972189;28;21008;-76
2022/06/06 09:36:39;;;;;;;2.17;0.50;;;34.20;45.50;;;;;;4965120;28;20589;-76
2022/06/06 09:39:08;;;;;;;1.40;0.47;;;33.40;45.90;;;;;;4989014;28;20626;-76
2022/06/06 09:41:48;;;;;;;1.30;0.50;;;32.50;46.00;;;;;;4974349;28;20589;-77
2022/06/06 09:44:59;;;;;;;3.27;0.60;;;31.70;46.30;;;;;;4982872;28;20742;-75
2022/06/06 09:47:56;;;;;;;1.40;0.60;;;30.80;47.50;;;;;;4953037;28;20653;-75
2022/06/06 09:50:49;;;;;;;4.20;1.90;;;29.80;49.70;;;;;;4977107;28;20878;-74
2022/06/06 10:00:02;;;;;;;1.40;0.60;;;26.60;55.90;;;;;;4978507;28;20956;-73
2022/06/06 10:03:12;;;;;;;1.53;0.60;;;26.70;59.10;;;;;;4980554;28;20581;-73
2022/06/06 10:06:12;;;;;;;1.40;0.70;;;26.90;59.20;;;;;;4976808;28;20680;-73
2022/06/06 10:09:19;;;;;;;1.37;0.50;;;27.00;58.90;;;;;;4973910;28;20686;-73
2022/06/06 10:12:13;;;;;;;1.60;0.60;;;27.00;59.80;;;;;;4974138;28;20916;-73
2022/06/06 10:14:56;;;;;;;1.33;0.67;;;27.10;59.80;;;;;;4962541;28;20733;-73
2022/06/06 10:18:02;;;;;;;2.50;0.70;;;27.10;60.10;;;;;;4974191;28;20563;-73
2022/06/06 10:41:37;;;;;;;1.40;0.80;;;26.20;61.10;;;;;;4973683;28;20661;-74
2022/06/06 10:48:33;;;;;;;1.43;0.60;;;25.50;61.70;;;;;;4977033;28;20570;-74
2022/06/06 10:54:16;;;;;;;1.40;0.60;;;25.10;63.40;;;;;;4973724;28;21126;-74
2022/06/06 10:57:04;;;;;;;1.60;0.60;;;24.90;63.50;;;;;;4974017;28;20653;-74
2022/06/06 10:59:59;;;;;;;1.20;0.50;;;24.80;64.60;;;;;;4973628;28;20638;-74
2022/06/06 11:02:25;;;;;;;1.80;0.50;;;24.70;64.50;;;;;;4973240;28;20689;-74
2022/06/06 11:04:51;;;;;;;2.03;0.60;;;24.60;65.20;;;;;;4973601;28;20793;-74
2022/06/06 11:07:48;;;;;;;1.20;0.50;;;24.60;65.70;;;;;;4972660;28;20618;-74
2022/06/06 11:10:43;;;;;;;1.53;0.50;;;24.60;66.50;;;;;;4962024;28;20213;-74
2022/06/06 11:14:02;;;;;;;1.30;0.50;;;24.60;67.00;;;;;;4972972;28;20920;-75
2022/06/06 11:17:11;;;;;;;1.10;0.30;;;24.70;67.00;;;;;;4895083;29;20650;-74
2022/06/06 11:20:12;;;;;;;1.20;0.40;;;24.80;67.90;;;;;;4972869;28;20621;-74
2022/06/06 11:23:13;;;;;;;1.20;0.40;;;25.10;69.20;;;;;;4974816;28;20571;-74
2022/06/06 11:25:44;;;;;;;1.80;0.50;;;25.60;70.90;;;;;;4973074;28;20737;-74
2022/06/06 11:28:12;;;;;;;1.10;0.40;;;26.20;71.70;;;;;;4973230;28;20567;-74
2022/06/06 11:30:57;;;;;;;1.10;0.40;;;26.70;72.50;;;;;;4972590;28;20610;-74
2022/06/06 11:34:17;;;;;;;1.70;0.70;;;27.30;72.80;;;;;;4972658;28;20975;-73
2022/06/06 11:37:04;;;;;;;1.90;0.90;;;27.90;70.30;;;;;;4950141;28;20995;-73
2022/06/06 11:40:02;;;;;;;1.20;0.50;;;28.50;70.50;;;;;;4955014;28;20729;-74
2022/06/06 11:42:41;;;;;;;1.30;0.60;;;29.00;69.00;;;;;;4972640;28;20567;-74
2022/06/06 11:45:35;;;;;;;1.30;0.50;;;29.50;71.30;;;;;;4955558;28;20629;-74
2022/06/06 11:48:01;;;;;;;1.30;0.50;;;29.90;69.30;;;;;;4972776;28;20614;-74
2022/06/06 11:50:39;;;;;;;1.20;0.50;;;30.20;67.90;;;;;;4955318;28;20594;-73
2022/06/06 11:53:24;;;;;;;2.40;0.90;;;30.30;65.00;;;;;;4954661;28;20182;-74
2022/06/06 11:55:59;;;;;;;1.30;0.60;;;30.40;64.40;;;;;;4972736;28;20589;-75
2022/06/06 11:58:37;;;;;;;1.50;0.60;;;30.50;62.80;;;;;;4955283;28;20590;-75
2022/06/06 12:01:15;;;;;;;1.93;0.70;;;30.60;61.00;;;;;;4984484;28;20735;-75
2022/06/06 12:04:05;;;;;;;2.70;1.83;;;30.80;62.30;;;;;;4982861;28;21220;-75
2022/06/06 12:06:50;;;;;;;2.57;1.20;;;30.80;61.00;;;;;;4961563;28;20609;-75
2022/06/06 12:09:25;;;;;;;1.83;0.77;;;30.90;61.00;;;;;;4991754;28;20605;-75
2022/06/06 12:12:41;;;;;;;3.73;0.80;;;30.90;59.90;;;;;;4991656;28;20574;-75
2022/06/06 12:15:32;;;;;;;1.90;0.90;;;30.80;59.10;;;;;;4958431;28;20590;-75
2022/06/06 12:18:03;;;;;;;2.30;1.43;;;30.60;57.60;;;;;;4986417;28;20594;-75
2022/06/06 12:21:07;;;;;;;3.80;2.27;;;30.40;57.60;;;;;;4971902;28;21184;-74
2022/06/06 12:24:14;;;;;;;2.00;1.00;;;30.30;57.20;;;;;;4937394;28;20618;-73
2022/06/06 12:27:18;;;;;;;1.70;0.77;;;30.30;56.90;;;;;;4971824;28;21033;-73
2022/06/06 12:30:14;;;;;;;1.30;0.60;;;30.20;57.10;;;;;;4951836;28;20619;-72
2022/06/06 12:33:10;;;;;;;1.50;0.50;;;30.10;53.70;;;;;;4954496;28;20583;-72
2022/06/06 12:35:57;;;;;;;1.90;0.60;;;30.00;55.30;;;;;;4970778;28;20583;-72
2022/06/06 12:38:41;;;;;;;1.20;0.50;;;29.80;54.60;;;;;;4959183;28;20665;-73
2022/06/06 12:41:37;;;;;;;1.50;0.67;;;29.70;55.30;;;;;;4970409;28;20627;-75
2022/06/06 12:44:27;;;;;;;1.80;1.23;;;29.50;55.20;;;;;;4962596;28;20586;-73
2022/06/06 12:47:30;;;;;;;3.20;1.43;;;29.30;55.30;;;;;;4967147;28;20696;-73
2022/06/06 12:50:19;;;;;;;1.60;0.90;;;29.00;54.10;;;;;;4968562;28;20646;-72
2022/06/06 12:53:06;;;;;;;3.80;1.93;;;28.70;54.70;;;;;;4971599;28;20572;-74
2022/06/06 12:56:17;;;;;;;2.37;1.23;;;28.40;55.20;;;;;;4972229;28;20601;-73
2022/06/06 12:58:58;;;;;;;4.67;1.77;;;28.10;55.50;;;;;;4954097;28;20697;-73
2022/06/06 13:01:38;;;;;;;3.43;1.30;;;27.80;56.00;;;;;;4970705;28;20575;-73
2022/06/06 13:04:21;;;;;;;4.03;1.77;;;27.60;56.60;;;;;;4971967;28;20615;-73
2022/06/06 13:07:01;;;;;;;2.10;1.37;;;27.40;57.00;;;;;;4970599;28;21192;-74
2022/06/06 13:09:51;;;;;;;5.27;3.80;;;27.20;57.20;;;;;;4954869;28;20680;-75
2022/06/06 13:12:46;;;;;;;6.80;4.63;;;27.20;57.70;;;;;;4972638;28;20563;-73
2022/06/06 13:15:39;;;;;;;2.53;1.10;;;27.10;57.80;;;;;;4975503;28;20578;-73
2022/06/06 13:18:50;;;;;;;2.60;0.90;;;27.10;57.60;;;;;;4956049;28;21249;-73
2022/06/06 13:21:20;;;;;;;2.07;0.90;;;27.10;57.70;;;;;;4874634;29;20603;-73
2022/06/06 13:24:04;;;;;;;1.60;0.80;;;27.10;57.50;;;;;;4874331;29;20682;-73
2022/06/06 13:26:39;;;;;;;1.63;0.73;;;27.00;57.10;;;;;;4922771;29;20658;-73
2022/06/06 13:29:05;;;;;;;3.83;1.03;;;26.90;57.50;;;;;;4966696;28;20634;-73
2022/06/06 13:31:51;;;;;;;4.33;0.83;;;26.80;57.50;;;;;;4963124;28;20937;-73
2022/06/06 13:34:40;;;;;;;4.00;0.80;;;26.70;56.90;;;;;;4973952;28;21347;-75
2022/06/06 13:37:21;;;;;;;3.20;0.97;;;26.60;57.40;;;;;;4971873;28;20594;-75
2022/06/06 13:40:00;;;;;;;4.63;1.37;;;26.50;57.20;;;;;;4965603;28;20638;-76
2022/06/06 13:42:39;;;;;;;3.37;1.60;;;26.40;57.70;;;;;;4938614;28;20591;-73
2022/06/06 13:45:41;;;;;;;1.50;0.80;;;26.40;57.50;;;;;;4960142;28;21064;-76
2022/06/06 13:48:31;;;;;;;2.10;0.73;;;26.40;57.90;;;;;;4942061;28;20588;-75
2022/06/06 13:51:21;;;;;;;1.30;0.60;;;26.40;58.10;;;;;;4976981;28;20607;-73
2022/06/06 13:54:08;;;;;;;1.63;0.80;;;26.40;58.20;;;;;;4974737;28;20563;-73
2022/06/06 13:56:51;;;;;;;2.77;0.73;;;26.40;57.50;;;;;;4957740;28;20575;-75
2022/06/06 13:59:35;;;;;;;1.70;0.70;;;26.50;57.90;;;;;;4975035;28;20649;-75
2022/06/06 14:02:14;;;;;;;1.30;0.50;;;26.50;58.00;;;;;;4957406;28;20670;-75
2022/06/06 14:05:03;;;;;;;3.30;1.00;;;26.50;57.80;;;;;;4956769;28;20638;-75
2022/06/06 14:08:05;;;;;;;5.83;4.47;;;26.60;57.90;;;;;;4925435;28;21126;-74
2022/06/06 14:10:45;;;;;;;2.93;2.20;;;26.50;57.00;;;;;;4957919;28;20626;-82
2022/06/06 14:13:35;;;;;;;1.53;0.80;;;26.60;56.90;;;;;;4974450;28;20645;-82
2022/06/06 14:16:01;;;;;;;3.50;0.80;;;26.60;56.30;;;;;;4975004;28;20568;-81
2022/06/06 14:18:35;;;;;;;1.50;0.70;;;26.50;56.10;;;;;;4974772;28;20923;-81
2022/06/06 14:21:03;;;;;;;1.43;0.80;;;26.50;55.50;;;;;;4974703;28;21142;-81
2022/06/06 14:23:37;;;;;;;3.27;1.50;;;26.40;55.00;;;;;;4941366;28;21463;-81
2022/06/06 14:26:06;;;;;;;1.40;0.70;;;26.30;55.00;;;;;;4969876;28;20634;-81
2022/06/06 14:28:41;;;;;;;4.30;1.90;;;26.30;55.20;;;;;;4979049;28;20962;-81
2022/06/06 14:31:40;;;;;;;3.00;1.10;;;26.30;55.30;;;;;;4974589;28;20629;-81
2022/06/06 14:34:18;;;;;;;2.07;1.20;;;26.20;54.80;;;;;;4973736;28;20578;-81
2022/06/06 14:36:46;;;;;;;2.97;1.40;;;26.20;55.90;;;;;;4974427;28;20586;-81
2022/06/06 14:39:22;;;;;;;3.60;2.30;;;26.30;56.40;;;;;;4974047;28;20614;-81
2022/06/06 14:41:50;;;;;;;5.73;1.60;;;26.30;56.50;;;;;;4956158;28;20630;-80
2022/06/06 14:44:56;;;;;;;4.10;2.50;;;26.40;56.70;;;;;;4956326;28;20647;-80
2022/06/06 14:47:24;;;;;;;3.93;2.67;;;26.30;56.00;;;;;;4934637;28;20923;-80
2022/06/06 14:52:56;;;;;;;1.93;1.10;;;26.30;55.70;;;;;;4973719;28;20579;-80